Time;durP1;ratioP1;P1;durP2;ratioP2;P2;SDS_P1;SDS_P2;PMS_P1;PMS_P2;Temp;Humidity;BMP_temperature;BMP_pressure;BME280_temperature;BME280_humidity;BME280_pressure;Samples;Min_cycle;Max_cycle;Signal;HPM_P1;HPM_P2
2021/01/28 00:01:16;;;;;;;31.77;18.80;;;;;;;-1.13;100.00;98151.61;1820130;78;20889;-74
2021/01/28 00:03:45;;;;;;;33.38;21.27;;;;;;;-1.09;100.00;98143.56;1820023;78;21885;-74
2021/01/28 00:06:14;;;;;;;26.17;15.43;;;;;;;-1.10;100.00;98142.48;1819966;78;21543;-74
2021/01/28 00:08:42;;;;;;;25.77;15.95;;;;;;;-1.16;100.00;98142.80;1820040;78;20979;-74
2021/01/28 00:11:11;;;;;;;27.62;16.48;;;;;;;-1.15;100.00;98140.48;1819852;78;21074;-75
2021/01/28 00:13:39;;;;;;;24.55;15.38;;;;;;;-1.24;100.00;98136.99;1820152;78;21046;-74
2021/01/28 00:16:07;;;;;;;22.25;13.95;;;;;;;-1.19;100.00;98128.75;1819969;78;26307;-75
2021/01/28 00:18:36;;;;;;;26.73;14.87;;;;;;;-1.22;100.00;98122.59;1819988;78;20916;-75
2021/01/28 00:21:06;;;;;;;31.15;17.85;;;;;;;-1.24;100.00;98117.25;1819856;78;20924;-74
2021/01/28 00:23:42;;;;;;;;;;;;;;;-1.18;100.00;98109.80;1822575;78;20987;-75
2021/01/28 00:26:12;;;;;;;30.72;17.90;;;;;;;-1.21;100.00;98113.66;1819941;78;20207;-75
2021/01/28 00:28:40;;;;;;;22.37;14.65;;;;;;;-1.19;100.00;98110.31;1819894;78;21242;-75
2021/01/28 00:31:11;;;;;;;27.80;17.23;;;;;;;-1.23;100.00;98103.05;1819961;78;28728;-75
2021/01/28 00:33:40;;;;;;;22.32;14.43;;;;;;;-1.27;100.00;98094.79;1822516;77;21572;-75
2021/01/28 00:36:11;;;;;;;30.02;15.13;;;;;;;-1.30;100.00;98083.34;1823357;78;20892;-75
2021/01/28 00:38:40;;;;;;;31.02;18.00;;;;;;;-1.34;100.00;98076.40;1823329;78;20904;-74
2021/01/28 00:41:10;;;;;;;29.82;16.12;;;;;;;-1.36;100.00;98069.22;1792792;78;21721;-74
2021/01/28 00:43:38;;;;;;;;;;;;;;;-1.35;100.00;98060.80;1825840;78;21509;-74
2021/01/28 00:46:08;;;;;;;26.52;15.40;;;;;;;-1.42;100.00;98053.46;1823214;78;20113;-74
2021/01/28 00:48:38;;;;;;;28.45;17.20;;;;;;;-1.36;100.00;98044.73;1823368;78;20935;-74
2021/01/28 00:51:08;;;;;;;24.05;13.53;;;;;;;-1.39;100.00;98039.90;1794712;78;21474;-74
2021/01/28 00:53:36;;;;;;;30.50;18.95;;;;;;;-1.37;100.00;98039.15;1823245;78;21189;-75
2021/01/28 00:56:05;;;;;;;24.10;14.85;;;;;;;-1.26;100.00;98045.56;1822681;78;20942;-75
2021/01/28 00:58:35;;;;;;;28.10;15.25;;;;;;;-1.35;100.00;98047.64;1821715;78;21537;-74
2021/01/28 01:01:07;;;;;;;31.02;15.48;;;;;;;-1.37;100.00;98052.31;1822662;78;21007;-74
2021/01/28 01:03:36;;;;;;;35.98;21.42;;;;;;;-1.33;100.00;98070.10;1822699;78;20936;-74
2021/01/28 01:06:07;;;;;;;29.20;17.30;;;;;;;-1.24;100.00;98075.13;1822666;78;21185;-72
2021/01/28 01:08:36;;;;;;;30.43;16.95;;;;;;;-1.36;100.00;98066.59;1822653;78;20975;-73
2021/01/28 01:11:15;;;;;;;26.25;16.97;;;;;;;-1.36;100.00;98074.48;1822177;78;20994;-75
2021/01/28 01:13:46;;;;;;;25.35;16.17;;;;;;;-1.39;100.00;98070.17;1822688;78;20939;-74
2021/01/28 01:16:19;;;;;;;27.77;16.52;;;;;;;-1.31;100.00;98078.59;1822164;78;20923;-74
2021/01/28 01:18:51;;;;;;;24.95;15.13;;;;;;;-1.32;100.00;98074.36;1822079;78;21190;-74
2021/01/28 01:21:20;;;;;;;20.30;13.60;;;;;;;-1.35;100.00;98064.75;1822683;78;20924;-74
2021/01/28 01:23:50;;;;;;;27.62;15.60;;;;;;;-1.36;100.00;98061.33;1820899;78;21470;-74
2021/01/28 01:26:19;;;;;;;22.48;13.25;;;;;;;-1.34;100.00;98048.76;1822730;78;20888;-74
2021/01/28 01:28:50;;;;;;;19.67;13.78;;;;;;;-1.27;100.00;98050.52;1822740;78;20896;-73
2021/01/28 01:31:22;;;;;;;27.55;18.02;;;;;;;-1.33;100.00;98057.45;1818439;78;22676;-74
2021/01/28 01:33:51;;;;;;;26.00;16.75;;;;;;;-1.27;100.00;98046.09;1822679;78;21727;-74
2021/01/28 01:36:21;;;;;;;18.50;11.20;;;;;;;-1.23;100.00;98044.62;1822314;78;21655;-74
2021/01/28 01:38:51;;;;;;;16.55;10.20;;;;;;;-1.36;100.00;98048.67;1821643;78;21781;-74
2021/01/28 01:41:21;;;;;;;20.25;14.13;;;;;;;-1.25;100.00;98053.27;1821952;78;21023;-74
2021/01/28 01:44:00;;;;;;;15.93;9.88;;;;;;;-1.29;100.00;98046.80;1822866;78;21183;-74
2021/01/28 01:46:28;;;;;;;23.98;14.60;;;;;;;-1.30;100.00;98049.95;1793756;78;20919;-74
2021/01/28 01:49:00;;;;;;;;;;;;;;;-1.25;100.00;98026.11;1825368;78;20880;-73
2021/01/28 01:51:39;;;;;;;18.73;13.15;;;;;;;-1.35;100.00;98037.95;1822721;78;20148;-73
2021/01/28 01:54:27;;;;;;;13.05;9.85;;;;;;;-1.21;100.00;98027.30;1795963;78;21050;-74
2021/01/28 01:57:02;;;;;;;20.52;14.78;;;;;;;-1.30;100.00;98034.64;1822559;78;21482;-75
2021/01/28 01:59:45;;;;;;;20.62;13.20;;;;;;;-1.25;100.00;98028.25;1822081;78;21061;-74
2021/01/28 02:02:27;;;;;;;13.32;9.63;;;;;;;-1.27;100.00;98034.73;1817702;78;20908;-73
2021/01/28 02:05:31;;;;;;;15.63;11.33;;;;;;;-1.27;100.00;98025.03;1778140;78;21002;-74
2021/01/28 02:08:05;;;;;;;15.65;10.05;;;;;;;-1.28;100.00;98020.77;1822667;78;20987;-73
2021/01/28 02:10:52;;;;;;;14.30;11.25;;;;;;;-1.35;100.00;98008.16;1822667;78;21365;-73
2021/01/28 02:13:24;;;;;;;17.48;11.15;;;;;;;-1.40;100.00;98012.75;1821042;78;20947;-74
2021/01/28 02:15:54;;;;;;;13.95;9.73;;;;;;;-1.37;100.00;98007.08;1821178;78;21598;-73
2021/01/28 02:18:24;;;;;;;12.75;9.05;;;;;;;-1.31;100.00;98010.67;1822669;78;21536;-74
2021/01/28 02:21:25;;;;;;;17.45;11.85;;;;;;;-1.32;100.00;98006.44;1819945;78;21462;-74
2021/01/28 02:24:33;;;;;;;15.03;10.00;;;;;;;-1.32;100.00;98006.44;1822340;78;22453;-74
2021/01/28 02:27:05;;;;;;;12.13;10.08;;;;;;;-1.36;100.00;97997.34;1822462;78;20979;-74
2021/01/28 02:29:52;;;;;;;12.25;9.60;;;;;;;-1.30;100.00;97993.84;1799787;78;21035;-74
2021/01/28 02:32:20;;;;;;;9.78;8.28;;;;;;;-1.25;100.00;97983.98;1822399;78;20896;-75
2021/01/28 02:34:50;;;;;;;13.13;8.65;;;;;;;-1.34;100.00;97984.78;1819251;78;21442;-75
2021/01/28 02:37:21;;;;;;;;;;;;;;;-1.26;100.00;97977.12;1788796;78;21190;-74
2021/01/28 02:39:59;;;;;;;8.93;7.97;;;;;;;-1.24;100.00;97986.41;1790387;78;20153;-74
2021/01/28 02:42:42;;;;;;;15.98;9.40;;;;;;;-1.31;100.00;97988.30;1789515;80;21638;-74
2021/01/28 02:45:16;;;;;;;13.38;9.50;;;;;;;-1.25;100.00;98002.41;1789068;80;21191;-73
2021/01/28 02:48:00;;;;;;;14.78;10.82;;;;;;;-1.30;100.00;97999.94;1874721;75;28144;-73
2021/01/28 02:50:40;;;;;;;21.33;12.53;;;;;;;-1.26;100.00;98004.77;1819322;78;26606;-75
2021/01/28 02:53:08;;;;;;;16.10;10.45;;;;;;;-1.33;100.00;97993.77;1786991;78;21191;-74
2021/01/28 02:55:40;;;;;;;22.77;13.53;;;;;;;-1.36;100.00;97999.47;1819848;78;21521;-74
2021/01/28 02:58:08;;;;;;;13.45;9.75;;;;;;;-1.24;100.00;98007.48;1763129;78;21565;-74
2021/01/28 03:00:40;;;;;;;18.17;11.85;;;;;;;-1.28;100.00;98004.97;1819777;78;20908;-73
2021/01/28 03:03:13;;;;;;;23.25;13.90;;;;;;;-1.28;100.00;98010.23;1820018;78;21442;-74
2021/01/28 03:05:43;;;;;;;17.20;11.68;;;;;;;-1.15;100.00;98011.45;1818698;78;21635;-75
2021/01/28 03:08:12;;;;;;;18.15;11.95;;;;;;;-1.24;100.00;97994.31;1788160;78;21011;-74
2021/01/28 03:10:43;;;;;;;13.32;10.50;;;;;;;-1.15;100.00;98001.41;1819911;78;20908;-73
2021/01/28 03:13:13;;;;;;;11.43;7.90;;;;;;;-1.28;100.00;97993.12;1817690;78;21039;-74
2021/01/28 03:15:52;;;;;;;9.58;7.53;;;;;;;-1.28;100.00;97976.53;1818455;78;21498;-74
2021/01/28 03:18:22;;;;;;;10.38;8.20;;;;;;;-1.27;100.00;97988.17;1789128;78;21443;-74
2021/01/28 03:20:52;;;;;;;8.98;7.85;;;;;;;-1.31;100.00;97983.03;1819778;78;21066;-74
2021/01/28 03:23:26;;;;;;;8.58;6.40;;;;;;;-1.26;100.00;97971.86;1814804;78;21007;-74
2021/01/28 03:26:03;;;;;;;9.65;7.20;;;;;;;-1.24;100.00;97975.89;1743562;78;21066;-75
2021/01/28 03:28:33;;;;;;;7.58;6.78;;;;;;;-1.17;100.00;97980.58;1819888;78;20960;-75
2021/01/28 03:31:05;;;;;;;11.30;7.28;;;;;;;-1.24;100.00;97986.41;1819706;78;21356;-74
2021/01/28 03:33:35;;;;;;;11.85;9.38;;;;;;;-1.18;100.00;97988.69;1819590;78;21612;-76
2021/01/28 03:36:03;;;;;;;10.43;8.60;;;;;;;-1.25;100.00;97973.45;1788754;78;21486;-75
2021/01/28 03:38:38;;;;;;;9.08;7.37;;;;;;;-1.34;100.00;97978.20;1819708;78;21014;-75
2021/01/28 03:41:11;;;;;;;7.67;6.70;;;;;;;-1.33;100.00;97984.55;1819910;78;20865;-75
2021/01/28 03:43:39;;;;;;;8.35;7.40;;;;;;;-1.32;100.00;97995.39;1819904;78;21469;-74
2021/01/28 03:46:08;;;;;;;11.43;6.92;;;;;;;-1.25;100.00;97988.77;1819631;77;21066;-74
2021/01/28 03:48:46;;;;;;;9.20;7.72;;;;;;;-1.29;100.00;97983.63;1818193;78;20903;-74
2021/01/28 03:51:30;;;;;;;8.40;7.47;;;;;;;-1.26;100.00;97985.02;1819406;78;20999;-73
2021/01/28 03:54:17;;;;;;;8.65;7.33;;;;;;;-1.40;100.00;97968.00;1819976;78;21557;-74
2021/01/28 03:56:50;;;;;;;10.88;7.50;;;;;;;-1.26;100.00;97967.91;1817845;78;21791;-73
2021/01/28 03:59:19;;;;;;;11.75;9.48;;;;;;;-1.28;100.00;97973.37;1819149;78;21470;-74
2021/01/28 04:02:01;;;;;;;12.98;9.20;;;;;;;-1.20;100.00;97982.34;1814326;78;21152;-74
2021/01/28 04:04:49;;;;;;;11.22;7.65;;;;;;;-1.15;100.00;97978.55;1819328;78;21034;-74
2021/01/28 04:07:41;;;;;;;11.38;8.25;;;;;;;-1.13;100.00;97971.23;1819381;78;20991;-73
2021/01/28 04:10:17;;;;;;;13.68;8.58;;;;;;;-1.21;100.00;97968.86;1819277;78;21200;-74
2021/01/28 04:12:47;;;;;;;10.13;8.20;;;;;;;-1.07;100.00;97972.19;1819330;78;21537;-73
2021/01/28 04:15:20;;;;;;;7.65;6.87;;;;;;;-1.05;100.00;97971.95;1819128;78;21029;-74
2021/01/28 04:17:50;;;;;;;9.98;8.00;;;;;;;-1.11;100.00;97971.00;1819223;78;20916;-73
2021/01/28 04:20:28;;;;;;;9.73;7.33;;;;;;;-1.14;100.00;97968.30;1817511;78;20960;-74
2021/01/28 04:22:58;;;;;;;13.40;9.60;;;;;;;-1.18;100.00;97968.42;1819273;78;21191;-74
2021/01/28 04:25:28;;;;;;;7.95;7.10;;;;;;;-1.11;100.00;97962.59;1819147;78;21022;-73
2021/01/28 04:27:57;;;;;;;12.60;9.20;;;;;;;-1.14;100.00;97960.91;1819329;78;20967;-73
2021/01/28 04:30:33;;;;;;;21.95;13.00;;;;;;;-1.20;100.00;97953.38;1814363;78;21138;-75
2021/01/28 04:33:04;;;;;;;15.80;10.72;;;;;;;-1.16;100.00;97955.85;1818305;78;20915;-75
2021/01/28 04:35:43;;;;;;;16.85;10.70;;;;;;;-1.16;100.00;97959.80;1814177;78;21155;-74
2021/01/28 04:38:12;;;;;;;13.78;10.48;;;;;;;-1.11;100.00;97954.69;1819357;78;21554;-74
2021/01/28 04:40:49;;;;;;;14.18;10.68;;;;;;;-1.15;100.00;97960.11;1818571;78;21011;-75
2021/01/28 04:43:23;;;;;;;13.10;9.00;;;;;;;-1.17;100.00;97962.15;1819218;78;20976;-74
2021/01/28 04:46:04;;;;;;;12.95;9.95;;;;;;;-1.11;100.00;97969.17;1819184;78;21454;-74
2021/01/28 04:48:34;;;;;;;16.73;11.85;;;;;;;-1.15;100.00;97957.48;1822403;78;21612;-75
2021/01/28 04:51:28;;;;;;;16.25;11.28;;;;;;;-1.01;100.00;97961.28;1822365;78;20963;-74
2021/01/28 04:54:22;;;;;;;14.87;10.65;;;;;;;-1.01;100.00;97968.67;1822477;78;21122;-75
2021/01/28 04:56:51;;;;;;;38.48;21.27;;;;;;;-1.00;100.00;97979.52;1822325;78;20889;-75
2021/01/28 04:59:45;;;;;;;30.92;18.25;;;;;;;-1.03;100.00;97979.13;1874731;75;28249;-73
2021/01/28 05:02:18;;;;;;;28.95;20.52;;;;;;;-1.00;100.00;97975.56;1790496;78;21003;-73
2021/01/28 05:04:57;;;;;;;25.70;17.50;;;;;;;-0.95;100.00;97981.50;1785219;78;21376;-73
2021/01/28 05:07:40;;;;;;;19.55;12.95;;;;;;;-0.92;100.00;97986.33;1817490;78;20943;-74
2021/01/28 05:10:29;;;;;;;16.27;11.12;;;;;;;-0.94;100.00;97987.05;1819866;78;21019;-74
2021/01/28 05:13:05;;;;;;;18.23;11.70;;;;;;;-1.01;100.00;97975.77;1815173;78;21047;-74
2021/01/28 05:15:41;;;;;;;10.30;9.23;;;;;;;-1.03;100.00;97977.81;1815275;78;20916;-74
2021/01/28 05:18:36;;;;;;;9.65;7.03;;;;;;;-1.05;100.00;97977.22;1819983;78;21812;-74
2021/01/28 05:21:22;;;;;;;12.43;9.15;;;;;;;-1.01;100.00;97975.25;1815118;78;20927;-75
2021/01/28 05:24:25;;;;;;;12.00;8.60;;;;;;;-0.99;100.00;97975.05;1814945;78;20923;-74
2021/01/28 05:26:54;;;;;;;10.08;9.03;;;;;;;-1.05;100.00;97963.56;1819871;78;21608;-74
2021/01/28 05:29:26;;;;;;;11.80;9.75;;;;;;;-1.19;100.00;97972.09;1819968;78;21165;-74
2021/01/28 05:31:59;;;;;;;10.35;8.33;;;;;;;-1.17;100.00;97963.47;1818617;78;22198;-74
2021/01/28 05:34:34;;;;;;;13.83;10.05;;;;;;;-1.15;100.00;97966.69;1819794;78;21035;-74
2021/01/28 05:37:23;;;;;;;11.35;9.25;;;;;;;-1.19;100.00;97951.03;1819840;78;20971;-74
2021/01/28 05:39:53;;;;;;;11.90;10.32;;;;;;;-1.11;100.00;97942.84;1819638;78;21155;-75
2021/01/28 05:42:28;;;;;;;9.93;8.88;;;;;;;-1.16;100.00;97937.42;1780986;78;21065;-74
2021/01/28 05:44:57;;;;;;;16.27;11.15;;;;;;;-1.14;100.00;97932.75;1819896;78;21191;-74
2021/01/28 05:47:33;;;;;;;10.25;9.25;;;;;;;-1.09;100.00;97934.73;1818668;78;21509;-74
2021/01/28 05:50:29;;;;;;;9.35;8.33;;;;;;;-1.16;100.00;97923.45;1765021;81;20992;-74
2021/01/28 05:53:16;;;;;;;10.18;8.58;;;;;;;-1.11;100.00;97917.82;1661570;85;20964;-73
2021/01/28 05:55:48;;;;;;;10.35;7.70;;;;;;;-1.30;100.00;97914.38;1712197;83;21090;-73
2021/01/28 05:58:29;;;;;;;10.20;8.90;;;;;;;-1.29;100.00;97911.23;1681888;85;22364;-73
2021/01/28 06:01:03;;;;;;;9.63;7.45;;;;;;;-1.10;100.00;97916.81;1760118;81;21044;-74
2021/01/28 06:03:50;;;;;;;14.50;9.33;;;;;;;-1.18;100.00;97906.55;1852255;77;28094;-73
2021/01/28 06:06:40;;;;;;;7.67;6.70;;;;;;;-1.29;100.00;97909.92;1745698;82;21007;-75
2021/01/28 06:09:31;;;;;;;11.63;9.03;;;;;;;-1.18;100.00;97910.50;1779198;78;21654;-73
2021/01/28 06:12:23;;;;;;;11.85;8.75;;;;;;;-1.21;100.00;97918.04;1750015;82;20938;-75
2021/01/28 06:15:15;;;;;;;17.00;9.95;;;;;;;-1.06;100.00;97920.32;1819879;78;20998;-74
2021/01/28 06:18:22;;;;;;;13.55;10.48;;;;;;;-1.12;100.00;97927.27;1819323;78;20960;-74
2021/01/28 06:21:17;;;;;;;23.32;15.10;;;;;;;-1.07;100.00;97935.33;1749434;78;21196;-74
2021/01/28 06:24:40;;;;;;;25.27;14.35;;;;;;;-1.00;100.00;97945.28;1783628;80;21183;-74
2021/01/28 06:27:30;;;;;;;;;;;;;;;;;;;;;
2021/01/28 06:30:34;;;;;;;107.25;45.17;;;;;;;-1.03;100.00;97952.80;1851021;77;28674;-73
2021/01/28 06:33:17;;;;;;;107.20;44.33;;;;;;;-1.10;100.00;97955.00;1714656;83;21022;-74
2021/01/28 06:36:16;;;;;;;132.00;55.20;;;;;;;-1.06;100.00;97954.03;1713524;83;22364;-74
2021/01/28 06:42:59;;;;;;;58.15;28.45;;;;;;;-0.96;100.00;97962.75;1842370;77;28788;-74
2021/01/28 06:45:59;;;;;;;97.88;47.70;;;;;;;-0.96;100.00;97966.19;1817120;78;20994;-74
2021/01/28 06:48:44;;;;;;;87.47;41.50;;;;;;;-0.86;100.00;97969.63;1869826;75;28661;-74
2021/01/28 06:54:54;;;;;;;55.33;24.12;;;;;;;-0.90;100.00;97971.11;1724420;83;21070;-72
2021/01/28 06:58:23;;;;;;;41.48;21.33;;;;;;;-0.93;100.00;97972.36;1722654;82;21534;-74
2021/01/28 07:01:33;;;;;;;31.10;16.37;;;;;;;-0.79;100.00;97973.01;1849033;76;28841;-74
2021/01/28 07:04:37;;;;;;;21.65;13.30;;;;;;;-0.89;100.00;97969.56;1778963;78;21609;-74
2021/01/28 07:07:26;;;;;;;28.60;16.60;;;;;;;-0.87;100.00;97964.88;1738307;80;21507;-74
2021/01/28 07:10:37;;;;;;;36.88;20.12;;;;;;;-0.87;100.00;97950.91;1781994;79;21225;-74
2021/01/28 07:14:42;;;;;;;65.12;29.55;;;;;;;-0.98;100.00;97933.19;1714447;83;21211;-76
2021/01/28 07:17:29;;;;;;;45.03;22.73;;;;;;;-0.90;100.00;97938.19;1716903;83;21177;-73
2021/01/28 07:20:32;;;;;;;32.75;20.25;;;;;;;-1.03;100.00;97919.87;1719662;82;21054;-76
2021/01/28 07:23:38;;;;;;;42.48;22.80;;;;;;;-0.80;100.00;97923.98;1717393;83;22338;-74
2021/01/28 07:42:35;;;;;;;17.07;11.15;;;;;;;-0.74;100.00;97899.90;1836336;77;28350;-74
2021/01/28 07:45:32;;;;;;;17.75;12.75;;;;;;;-0.93;100.00;97897.78;1754136;78;21063;-74
2021/01/28 07:48:29;;;;;;;13.35;8.53;;;;;;;-1.02;100.00;97890.70;1791773;80;20985;-74
2021/01/28 07:51:33;;;;;;;21.10;15.25;;;;;;;-0.94;100.00;97899.61;1789646;80;21053;-74
2021/01/28 07:55:05;;;;;;;;;;;;;;;;;;;;;
2021/01/28 07:57:45;;;;;;;53.55;24.65;;;;;;;-0.75;100.00;97900.42;1818735;77;28777;-74
2021/01/28 08:00:30;;;;;;;56.37;23.62;;;;;;;-0.61;100.00;97896.29;1750451;81;20996;-75
2021/01/28 08:03:05;;;;;;;94.70;36.90;;;;;;;-0.60;100.00;97899.23;1764403;81;22130;-74
2021/01/28 08:05:36;;;;;;;81.63;31.60;;;;;;;-0.60;100.00;97910.58;1755340;81;20980;-74
2021/01/28 08:08:14;;;;;;;88.40;37.80;;;;;;;-0.77;100.00;97902.98;1764839;81;20995;-74
2021/01/28 08:11:14;;;;;;;85.30;32.13;;;;;;;-0.75;100.00;97896.98;1733195;81;21679;-74
2021/01/28 08:13:44;;;;;;;50.88;24.45;;;;;;;-0.93;100.00;97886.75;1765431;81;21588;-74
2021/01/28 08:16:31;;;;;;;53.98;25.50;;;;;;;-0.96;100.00;97874.52;1765257;81;21149;-74
2021/01/28 08:19:06;;;;;;;68.80;28.60;;;;;;;-0.98;100.00;97874.77;1755687;81;21027;-74
2021/01/28 08:21:35;;;;;;;57.95;21.62;;;;;;;-0.86;100.00;97895.88;1738550;81;20969;-75
2021/01/28 08:24:34;;;;;;;45.73;23.77;;;;;;;-0.88;100.00;97902.70;1735130;82;21789;-74
2021/01/28 08:27:13;;;;;;;21.35;14.87;;;;;;;-0.87;100.00;97907.45;1655774;82;21151;-75
2021/01/28 08:29:43;;;;;;;17.77;13.15;;;;;;;-0.95;100.00;97909.07;1732718;81;21060;-74
2021/01/28 08:32:23;;;;;;;18.98;12.53;;;;;;;-0.86;100.00;97910.36;1734985;82;20993;-74
2021/01/28 08:35:25;;;;;;;;;;;;;;;;;;;;;
2021/01/28 08:48:44;;;;;;;19.77;12.88;;;;;;;-0.59;100.00;97907.42;1747880;77;28044;-77
2021/01/28 08:51:37;;;;;;;;;;;;;;;;;;;;;
2021/01/28 08:54:36;;;;;;;;;;;;;;;;;;;;;
2021/01/28 08:57:09;;;;;;;25.12;16.15;;;;;;;-0.47;100.00;97896.41;1845220;77;28202;-75
2021/01/28 08:59:59;;;;;;;20.05;13.85;;;;;;;-0.48;100.00;97896.94;1822577;78;21000;-75
2021/01/28 09:03:03;;;;;;;14.10;9.98;;;;;;;-0.47;100.00;97891.14;1810057;78;20984;-75
2021/01/28 09:05:45;;;;;;;;;;;;;;;;;;;;;
2021/01/28 09:08:47;;;;;;;;;;;;;;;;;;;;;
2021/01/28 09:11:31;;;;;;;22.00;14.70;;;;;;;-0.39;100.00;97873.72;1852331;77;28064;-75
2021/01/28 09:14:43;;;;;;;;;;;;;;;;;;;;;
2021/01/28 09:20:37;;;;;;;13.53;10.68;;;;;;;-0.26;100.00;97856.90;1809739;78;28376;-73
2021/01/28 09:26:33;;;;;;;43.25;24.02;;;;;;;-0.39;100.00;97853.12;1841090;77;28217;-74
2021/01/28 09:29:26;;;;;;;27.62;16.32;;;;;;;-0.21;100.00;97868.89;1816634;79;21043;-74
2021/01/28 09:32:12;;;;;;;46.33;25.02;;;;;;;-0.30;100.00;97862.33;1785111;79;21197;-75
2021/01/28 09:34:43;;;;;;;27.37;16.82;;;;;;;-0.31;100.00;97856.25;1749463;82;21068;-73
2021/01/28 09:37:21;;;;;;;14.78;10.93;;;;;;;-0.37;100.00;97850.55;1780387;80;21059;-74
2021/01/28 09:39:52;;;;;;;20.45;12.90;;;;;;;-0.44;100.00;97849.86;1747044;81;21019;-74
2021/01/28 09:42:33;;;;;;;16.87;12.18;;;;;;;-0.25;100.00;97843.47;1747756;82;21169;-74
2021/01/28 09:45:14;;;;;;;25.52;16.82;;;;;;;-0.24;100.00;97847.73;1749763;81;21783;-75
2021/01/28 09:47:55;;;;;;;17.87;11.95;;;;;;;-0.23;100.00;97843.26;1718491;82;21000;-75
2021/01/28 09:50:25;;;;;;;18.43;14.23;;;;;;;-0.22;100.00;97848.84;1780818;80;20991;-74
2021/01/28 09:55:54;;;;;;;15.75;12.07;;;;;;;-0.28;100.00;97848.41;1667429;84;21721;-76
2021/01/28 09:58:39;;;;;;;11.93;10.60;;;;;;;0.12;100.00;97851.25;1675219;84;22739;-76
2021/01/28 10:01:26;;;;;;;20.25;13.75;;;;;;;0.09;100.00;97856.95;1800403;78;28578;-73
2021/01/28 10:20:46;;;;;;;17.57;10.98;;;;;;;-0.61;100.00;97858.91;1805019;78;21009;-74
2021/01/28 10:23:22;;;;;;;35.75;16.50;;;;;;;-0.73;100.00;97856.22;1786707;79;22539;-74
2021/01/28 10:25:56;;;;;;;17.98;12.03;;;;;;;-0.65;100.00;97859.05;1782172;80;21190;-73
2021/01/28 10:28:28;;;;;;;13.45;7.72;;;;;;;-0.69;100.00;97861.83;1787060;79;21001;-75
2021/01/28 10:30:59;;;;;;;13.15;9.03;;;;;;;-0.70;100.00;97857.59;1786686;79;20990;-73
2021/01/28 10:33:30;;;;;;;12.45;8.75;;;;;;;-0.74;100.00;97853.27;1787295;80;21618;-74
2021/01/28 10:36:01;;;;;;;10.15;8.68;;;;;;;-0.71;100.00;97857.30;1786823;78;22225;-73
2021/01/28 10:38:32;;;;;;;13.55;10.68;;;;;;;-0.64;100.00;97851.42;1786397;80;20924;-74
2021/01/28 10:41:05;;;;;;;16.87;12.00;;;;;;;-0.61;100.00;97851.00;1786914;80;21027;-74
2021/01/28 10:43:36;;;;;;;16.15;11.50;;;;;;;-0.47;100.00;97852.92;1786573;80;21071;-74
2021/01/28 10:46:31;;;;;;;13.05;10.13;;;;;;;-0.56;100.00;97854.29;1786654;79;21114;-74
2021/01/28 10:49:01;;;;;;;27.20;15.80;;;;;;;-0.43;100.00;97855.41;1781430;79;21210;-75
2021/01/28 10:54:21;;;;;;;18.92;13.38;;;;;;;-0.46;100.00;97849.28;1784847;79;21109;-73
2021/01/28 10:56:52;;;;;;;18.95;13.53;;;;;;;-0.57;100.00;97852.66;1786877;80;21022;-75
2021/01/28 10:59:20;;;;;;;13.85;9.85;;;;;;;-0.36;100.00;97849.53;1787228;80;20998;-74
2021/01/28 11:01:53;;;;;;;7.70;6.90;;;;;;;-0.39;100.00;97847.84;1786832;80;21190;-75
2021/01/28 11:04:30;;;;;;;7.72;6.92;;;;;;;-0.43;100.00;97852.78;1783727;80;21061;-76
2021/01/28 11:07:00;;;;;;;9.58;8.58;;;;;;;-0.35;100.00;97858.23;1786236;79;21069;-74
2021/01/28 11:09:29;;;;;;;9.30;7.05;;;;;;;-0.37;100.00;97855.02;1787090;80;21489;-75
2021/01/28 11:12:06;;;;;;;14.18;9.90;;;;;;;-0.29;100.00;97852.88;1787154;79;21458;-74
2021/01/28 11:14:36;;;;;;;8.08;6.05;;;;;;;-0.32;100.00;97853.34;1787140;80;21489;-73
2021/01/28 11:17:11;;;;;;;6.75;6.12;;;;;;;-0.40;100.00;97851.00;1786789;79;21009;-74
2021/01/28 11:19:43;;;;;;;7.85;7.10;;;;;;;-0.32;100.00;97848.06;1795878;78;21639;-74
2021/01/28 11:22:16;;;;;;;6.92;6.12;;;;;;;-0.14;100.00;97854.30;1722140;81;21197;-73
2021/01/28 11:24:55;;;;;;;6.45;5.85;;;;;;;-0.10;100.00;97847.03;1737194;81;21151;-73
2021/01/28 11:27:19;;;;;;;8.55;6.20;;;;;;;-0.29;100.00;97841.02;1751738;81;20935;-73
2021/01/28 11:30:21;;;;;;;6.72;6.12;;;;;;;-0.08;100.00;97837.55;1753426;81;21133;-73
2021/01/28 11:33:09;;;;;;;5.53;5.03;;;;;;;-0.14;100.00;97837.95;1754319;81;21014;-73
2021/01/28 11:36:05;;;;;;;6.87;6.22;;;;;;;-0.10;100.00;97829.06;1753880;81;21176;-73
2021/01/28 11:38:33;;;;;;;5.95;5.35;;;;;;;-0.16;100.00;97826.82;1754712;81;21177;-73
2021/01/28 11:41:14;;;;;;;13.28;9.68;;;;;;;-0.15;100.00;97824.46;1632963;87;21768;-73
2021/01/28 11:43:43;;;;;;;13.20;10.28;;;;;;;-0.10;100.00;97814.55;1615519;87;21251;-74
2021/01/28 11:46:40;;;;;;;6.70;5.97;;;;;;;-0.05;100.00;97815.99;1697507;84;21132;-73
2021/01/28 11:52:44;;;;;;;8.70;5.92;;;;;;;-0.10;100.00;97814.06;1784004;78;20991;-73
2021/01/28 11:55:28;;;;;;;8.23;7.33;;;;;;;-0.04;100.00;97811.82;1791088;78;21401;-75
2021/01/28 11:58:21;;;;;;;8.60;6.45;;;;;;;-0.03;100.00;97817.89;1763506;78;21212;-74
2021/01/28 12:00:56;;;;;;;6.70;5.60;;;;;;;0.15;100.00;97808.57;1790076;78;21656;-74
2021/01/28 12:03:32;;;;;;;5.83;5.35;;;;;;;-0.12;100.00;97805.57;1744139;81;21003;-74
2021/01/28 12:06:10;;;;;;;6.45;5.85;;;;;;;-0.01;100.00;97810.55;1748531;80;21070;-75
2021/01/28 12:08:50;;;;;;;;;;;;;;;;;;;;;
2021/01/28 12:11:53;;;;;;;;;;;;;;;;;;;;;
2021/01/28 12:14:16;;;;;;;5.72;5.22;;;;;;;-0.23;100.00;97788.68;1813468;79;20924;-74
2021/01/28 12:17:23;;;;;;;;;;;;;;;;;;;;;
2021/01/28 12:20:55;;;;;;;7.03;6.40;;;;;;;-0.11;100.00;97797.93;1594386;88;20499;-75
2021/01/28 12:23:26;;;;;;;6.17;5.60;;;;;;;-0.14;100.00;97793.13;1615767;88;21561;-75
2021/01/28 12:25:54;;;;;;;6.97;6.25;;;;;;;-0.15;100.00;97797.30;1616881;88;21682;-75
2021/01/28 12:31:29;;;;;;;;;;;;;;;;;;;;;
2021/01/28 12:34:07;;;;;;;4.87;4.47;;;;;;;-0.27;100.00;97782.77;1846169;77;24560;-75
2021/01/28 12:36:58;;;;;;;6.85;5.87;;;;;;;-0.16;100.00;97787.78;1822247;78;20924;-75
2021/01/28 12:39:56;;;;;;;6.12;5.20;;;;;;;-0.11;100.00;97787.91;1838404;77;29087;-75
2021/01/28 12:42:29;;;;;;;5.25;4.75;;;;;;;-0.15;100.00;97789.38;1815225;79;21653;-74
2021/01/28 12:45:04;;;;;;;6.20;5.70;;;;;;;-0.30;100.00;97787.98;1800860;78;21364;-75
2021/01/28 12:47:35;;;;;;;6.20;5.60;;;;;;;-0.16;100.00;97785.15;1783751;79;20926;-75
2021/01/28 12:50:13;;;;;;;6.08;5.53;;;;;;;-0.19;100.00;97785.61;1765252;80;20982;-76
2021/01/28 12:52:43;;;;;;;6.53;5.85;;;;;;;-0.33;100.00;97783.69;1784235;79;21017;-75
2021/01/28 12:55:21;;;;;;;6.85;6.15;;;;;;;-0.22;100.00;97782.39;1745683;80;21041;-75
2021/01/28 12:58:01;;;;;;;6.58;5.87;;;;;;;-0.23;100.00;97782.61;1783067;80;21397;-75
2021/01/28 13:00:32;;;;;;;7.75;7.03;;;;;;;-0.23;100.00;97780.77;1784655;80;21001;-75
2021/01/28 13:03:05;;;;;;;8.65;6.87;;;;;;;-0.19;100.00;97782.98;1779354;80;20985;-76
2021/01/28 13:05:52;;;;;;;6.33;5.72;;;;;;;-0.40;100.00;97773.23;1784495;80;21147;-75
2021/01/28 13:08:29;;;;;;;7.78;5.97;;;;;;;-0.39;100.00;97769.59;1743382;80;21457;-74
2021/01/28 13:10:59;;;;;;;7.62;6.00;;;;;;;-0.49;100.00;97773.27;1784478;79;21029;-75
2021/01/28 13:13:36;;;;;;;7.30;6.12;;;;;;;-0.53;100.00;97771.61;1754501;80;21635;-74
2021/01/28 13:16:10;;;;;;;6.85;6.12;;;;;;;-0.47;100.00;97767.27;1783719;79;21647;-75
2021/01/28 13:18:36;;;;;;;7.17;6.33;;;;;;;-0.61;100.00;97769.80;1784241;79;21479;-74
2021/01/28 13:21:08;;;;;;;7.42;5.60;;;;;;;-0.58;100.00;97768.05;1780190;80;20906;-75
2021/01/28 13:23:44;;;;;;;6.55;5.95;;;;;;;-0.53;100.00;97766.34;1784740;79;21426;-77
2021/01/28 13:26:14;;;;;;;8.75;6.50;;;;;;;-0.65;100.00;97762.88;1784374;80;20958;-75
2021/01/28 13:28:42;;;;;;;8.53;6.50;;;;;;;-0.58;100.00;97759.63;1784417;80;21567;-75
2021/01/28 13:31:29;;;;;;;;;;;;;;;;;;;;;
2021/01/28 13:34:12;;;;;;;7.17;6.03;;;;;;;-0.71;100.00;97751.41;1851581;77;28209;-75
2021/01/28 14:17:29;;;;;;;6.00;5.40;;;;;;;-0.94;100.00;97721.03;1843042;77;28502;-74
2021/01/28 14:19:57;;;;;;;6.22;5.60;;;;;;;-0.93;100.00;97731.36;1818222;78;21677;-75
2021/01/28 14:22:31;;;;;;;4.50;4.20;;;;;;;-1.02;100.00;97734.01;1821546;78;21748;-74